My webcam  My webcam


Radar lluvias  rain snow radar


Visita nuestra red de sitios de meteo:

Template documentation
and downloads

And another site



Informes METAR proximidad


Warning: A non-numeric value encountered in /var/www/clients/client12/web25/web/weather28/metar/metarDisplay.php on line 167

Warning: A non-numeric value encountered in /var/www/clients/client12/web25/web/weather28/metar/metarDisplay.php on line 167

Warning: A non-numeric value encountered in /var/www/clients/client12/web25/web/weather28/metar/metarDisplay.php on line 167
   
LEXJ - Santander, Spain
Distancia hasta la estación: ESE 6 km
Actualización: 28-02-2024 03:00
Parcialmente Nublado  
Parcialmente Nublado  
   Viento: NW 20.4 km/h
Viento: NW 20.4 km/h
Temperatura: 10°C
Térmica: 7°C
Punto de rocío: 5°C
Humedad: 71%
Baromètro: 1027 hPa
Nublado: Parcialmente Nublado
Visibilidad: 9 km
detalles de la nube: Parcialmente Nublado
LEXJ 280200Z AUTO 31011KT 280V350 9000 NSC 10/05 Q1027
LEBB - Bilbao/Sondica, Spain
Distancia hasta la estación: ESE 80 km
Actualización: 28-02-2024 03:30
Parcialmente nublado  
Parcialmente nublado  
   Viento: NW 22.2 km/h<br />Gust to 22.2 km/h
Viento: NW 22.2 km/h
Gust to 22.2 km/h
Temperatura: 11°C
Punto de rocío: 6°C
Humedad: 72%
Baromètro: 1026 hPa
Nublado: Parcialmente nublado
Visibilidad: More than 10 km
detalles de la nube: Parcialmente Nublado 3900 ft,
Parcialmente nublado 4900 ft,
Parcialmente nublado 5700 ft
LEBB 280230Z AUTO 32012G22KT 280V350 9999 SCT039 BKN049 BKN057 11/06 Q1026
LEAS - Asturias/Aviles, Spain
Distancia hasta la estación: W 172 km
Actualización: 28-02-2024 03:30
Nublado  
Nublado  
   Viento: SW 14.8 km/h
Viento: SW 14.8 km/h
Temperatura: 8°C
Térmica: 6°C
Punto de rocío: 4°C
Humedad: 76%
Baromètro: 1028 hPa
Nublado: Nublado
Visibilidad: More than 10 km
detalles de la nube: Nublado 4400 ft
LEAS 280230Z AUTO 23008KT 9999 OVC044 08/04 Q1028
LESO - San Sebastian/Fu, Spain
Distancia hasta la estación: E 169 km
Actualización: 28-02-2024 03:30
Parcialmente Nublado  
Parcialmente Nublado  
   Viento: NNW 14.8 km/h
Viento: NNW 14.8 km/h
Temperatura: 11°C
Punto de rocío: 5°C
Humedad: 67%
Baromètro: 1025 hPa
Nublado: Parcialmente Nublado
Visibilidad: More than 10 km
detalles de la nube: Nubes dispersas 3600 ft,
Parcialmente Nublado 5800 ft
LESO 280230Z AUTO 33008KT 280V010 9999 FEW036 SCT058 11/05 Q1025
LEVT - Vitoria, Spain
Distancia hasta la estación: ESE 114 km
Actualización: 28-02-2024 03:30
Parcialmente nublado  
Parcialmente nublado  
   Viento: N 18.5 km/h
Viento: N 18.5 km/h
Temperatura: 6°C
Térmica: 3°C
Punto de rocío: 3°C
Humedad: 81%
Baromètro: 1023 hPa
Nublado: Parcialmente nublado
Visibilidad: More than 10 km
detalles de la nube: Nubes dispersas 2400 ft,
Parcialmente nublado 3800 ft
LEVT 280230Z 36010KT 9999 FEW024 BKN038 06/03 Q1023
LEZG - Zaragoza (mil/Ci, Spain
Distancia hasta la estación: SE 307 km
Actualización: 28-02-2024 03:30
Despejado  
Despejado  
   Viento: WNW 55.6 km/h
Viento: WNW 55.6 km/h
Temperatura: 8°C
Térmica: 3°C
Punto de rocío: 2°C
Humedad: 66%
Baromètro: 1017 hPa
Visibilidad: More than 10 km
detalles de la nube: Despejado
LEZG 280230Z 30030KT CAVOK 08/02 Q1017
LEMD - Madrid ,Spain
Distancia hasta la estación: S 334 km
Actualización: 28-02-2024 03:30
Despejado  
Despejado  
   Viento: N 24.1 km/h
Viento: N 24.1 km/h
Temperatura: 6°C
Térmica: 2°C
Punto de rocío: -3°C
Humedad: 53%
Baromètro: 1021 hPa
Visibilidad: More than 10 km
detalles de la nube: Despejado
LEMD 280230Z 01013KT 340V060 CAVOK 06/M03 Q1021 NOSIG
  

Guión original por  Saratoga-weather.org Adaptado para la plantilla por  Weerstation Leuven

Obra sujeta a una Licencia de Creative Commons

RED DE ESTACIONES DE METEOCLIMATIC

Sello de calidad

ESCTB3900000039011A